Time,TemperatureF,DewpointF,PressureIn,WindDirection,WindDirectionDegrees,WindSpeedMPH,WindSpeedGustMPH,Humidity,HourlyPrecipIn,Conditions,Clouds,dailyrainin,SoftwareType,DateUTC
2013-01-31 00:00:00,40.4,39.6,26.57,WNW,284,11.0,28.0,97,0.06,,,-99.99,Weather View 32 v60,2013-01-31 05:00:00,
2013-01-31 00:40:00,40.3,39.5,26.56,WSW,248,11.0,26.0,97,0.02,,,-99.99,Weather View 32 v60,2013-01-31 05:40:00,
2013-01-31 01:00:00,35.5,34.7,26.59,WNW,296,16.0,36.0,97,0.03,,,-99.99,Weather View 32 v60,2013-01-31 06:00:00,
2013-01-31 01:40:00,33.2,32.4,26.63,WNW,297,6.0,36.0,97,0.03,,,-99.99,Weather View 32 v60,2013-01-31 06:40:00,
2013-01-31 02:00:00,32.2,31.4,26.63,WNW,295,11.0,25.0,97,0.02,,,-99.99,Weather View 32 v60,2013-01-31 07:00:00,
2013-01-31 02:40:00,31.2,30.4,26.64,WNW,301,14.0,26.0,97,0.02,,,-99.99,Weather View 32 v60,2013-01-31 07:40:00,
2013-01-31 03:00:00,29.8,28.8,26.66,WNW,298,8.0,26.0,96,0.01,,,-99.99,Weather View 32 v60,2013-01-31 08:00:00,
2013-01-31 03:40:00,27.4,26.2,26.68,WNW,297,19.0,32.0,95,0.01,,,-99.99,Weather View 32 v60,2013-01-31 08:40:00,
2013-01-31 04:00:00,27.1,25.9,26.70,WNW,295,17.0,32.0,95,0.01,,,-99.99,Weather View 32 v60,2013-01-31 09:00:00,
2013-01-31 04:40:00,25.7,24.0,26.72,WNW,287,12.0,32.0,93,0.01,,,-99.99,Weather View 32 v60,2013-01-31 09:40:00,
2013-01-31 05:00:00,25.5,23.5,26.73,WNW,293,16.0,33.0,92,0.01,,,-99.99,Weather View 32 v60,2013-01-31 10:00:00,
2013-01-31 05:40:00,24.4,21.9,26.77,WNW,283,8.0,33.0,90,0.00,,,-99.99,Weather View 32 v60,2013-01-31 10:40:00,
2013-01-31 06:00:00,24.3,21.5,26.78,WNW,295,12.0,32.0,89,0.00,,,-99.99,Weather View 32 v60,2013-01-31 11:00:00,
2013-01-31 06:40:00,23.9,20.9,26.79,WNW,303,6.0,29.0,88,0.00,,,-99.99,Weather View 32 v60,2013-01-31 11:40:00,
2013-01-31 07:00:00,23.5,21.0,26.81,WNW,298,11.0,26.0,90,0.00,,,-99.99,Weather View 32 v60,2013-01-31 12:00:00,
2013-01-31 07:40:00,23.8,19.4,26.82,NNW,345,7.0,26.0,83,0.01,,,-99.99,Weather View 32 v60,2013-01-31 12:40:00,
2013-01-31 08:00:00,23.5,19.4,26.82,NW,320,14.0,29.0,84,0.01,,,-99.99,Weather View 32 v60,2013-01-31 13:00:00,
2013-01-31 08:40:00,23.9,19.8,26.83,NNW,335,16.0,33.0,84,0.00,,,-99.99,Weather View 32 v60,2013-01-31 13:40:00,
2013-01-31 09:00:00,24.1,19.7,26.83,NW,316,4.0,33.0,83,0.00,,,-99.99,Weather View 32 v60,2013-01-31 14:00:00,
2013-01-31 09:20:00,23.3,19.2,26.85,NW,305,12.0,33.0,84,0.00,,,-99.99,Weather View 32 v60,2013-01-31 14:20:00,
2013-01-31 09:40:00,23.6,18.6,26.86,NW,307,11.0,27.0,81,0.00,,,-99.99,Weather View 32 v60,2013-01-31 14:40:00,
2013-01-31 10:00:00,22.6,16.8,26.88,WNW,285,17.0,30.0,78,0.00,,,-99.99,Weather View 32 v60,2013-01-31 15:00:00,
2013-01-31 10:20:00,21.9,17.0,26.89,NNW,330,15.0,33.0,81,0.00,,,-99.99,Weather View 32 v60,2013-01-31 15:20:00,
2013-01-31 10:40:00,22.4,16.6,26.89,WNW,300,14.0,33.0,78,0.00,,,-99.99,Weather View 32 v60,2013-01-31 15:40:00,
2013-01-31 11:00:00,21.5,16.3,26.90,WNW,289,17.0,33.0,80,0.00,,,-99.99,Weather View 32 v60,2013-01-31 16:00:00,
2013-01-31 11:20:00,23.4,17.9,26.90,WNW,298,13.0,29.0,79,0.00,,,-99.99,Weather View 32 v60,2013-01-31 16:20:00,
2013-01-31 11:40:00,23.1,17.3,26.89,West,277,14.0,29.0,78,0.00,,,-99.99,Weather View 32 v60,2013-01-31 16:40:00,
2013-01-31 12:00:00,21.9,17.5,26.90,WNW,294,19.0,36.0,83,0.00,,,-99.99,Weather View 32 v60,2013-01-31 17:00:00,
2013-01-31 12:20:00,22.1,17.2,26.90,NNW,337,9.0,36.0,81,0.00,,,-99.99,Weather View 32 v60,2013-01-31 17:20:00,
2013-01-31 12:40:00,21.8,17.4,26.89,WNW,302,9.0,36.0,83,0.00,,,-99.99,Weather View 32 v60,2013-01-31 17:40:00,
2013-01-31 13:00:00,23.3,17.5,26.90,WNW,290,18.0,28.0,78,0.00,,,-99.99,Weather View 32 v60,2013-01-31 18:00:00,
2013-01-31 13:20:00,22.3,17.1,26.90,NW,304,21.0,32.0,80,0.00,,,-99.99,Weather View 32 v60,2013-01-31 18:20:00,
2013-01-31 13:40:00,21.7,16.8,26.91,WNW,289,18.0,32.0,81,0.00,,,-99.99,Weather View 32 v60,2013-01-31 18:40:00,
2013-01-31 14:00:00,22.6,17.7,26.93,WNW,290,9.0,32.0,81,0.00,,,-99.99,Weather View 32 v60,2013-01-31 19:00:00,
2013-01-31 14:20:00,22.0,15.9,26.94,WNW,299,9.0,31.0,77,0.00,,,-99.99,Weather View 32 v60,2013-01-31 19:20:00,
2013-01-31 14:40:00,19.2,14.9,26.95,NW,308,11.0,31.0,83,0.00,,,-99.99,Weather View 32 v60,2013-01-31 19:40:00,
2013-01-31 15:00:00,18.5,13.1,26.97,NNW,331,11.0,31.0,79,0.00,,,-99.99,Weather View 32 v60,2013-01-31 20:00:00,
2013-01-31 15:20:00,17.9,11.6,26.98,NW,318,11.0,31.0,76,0.00,,,-99.99,Weather View 32 v60,2013-01-31 20:20:00,
2013-01-31 15:40:00,17.8,10.9,26.99,NW,325,8.0,29.0,74,0.00,,,-99.99,Weather View 32 v60,2013-01-31 20:40:00,
2013-01-31 16:00:00,17.8,10.9,27.00,West,275,9.0,29.0,74,0.00,,,-99.99,Weather View 32 v60,2013-01-31 21:00:00,
2013-01-31 16:20:00,17.6,11.3,27.00,WSW,254,8.0,24.0,76,0.00,,,-99.99,Weather View 32 v60,2013-01-31 21:20:00,
2013-01-31 16:40:00,17.1,10.5,27.01,WNW,303,8.0,24.0,75,0.00,,,-99.99,Weather View 32 v60,2013-01-31 21:40:00,
2013-01-31 17:00:00,17.0,11.0,27.01,WNW,301,7.0,24.0,77,0.00,,,-99.99,Weather View 32 v60,2013-01-31 22:00:00,
2013-01-31 17:20:00,16.7,10.5,27.02,WNW,301,8.0,24.0,76,0.00,,,-99.99,Weather View 32 v60,2013-01-31 22:20:00,
2013-01-31 17:40:00,16.9,10.7,27.02,West,279,8.0,19.0,76,0.00,,,-99.99,Weather View 32 v60,2013-01-31 22:40:00,
2013-01-31 18:00:00,17.1,10.5,27.02,WNW,283,13.0,18.0,75,0.00,,,-99.99,Weather View 32 v60,2013-01-31 23:00:00,
2013-01-31 18:20:00,17.3,10.1,27.02,West,273,11.0,22.0,73,0.00,,,-99.99,Weather View 32 v60,2013-01-31 23:20:00,
2013-01-31 18:40:00,17.2,11.2,27.03,WNW,282,8.0,22.0,77,0.00,,,-99.99,Weather View 32 v60,2013-01-31 23:40:00,
2013-01-31 19:00:00,17.1,11.1,27.02,WSW,253,4.0,22.0,77,0.00,,,-99.99,Weather View 32 v60,2013-02-01 00:00:00,
2013-01-31 19:20:00,17.6,11.6,27.02,West,264,8.0,21.0,77,0.00,,,-99.99,Weather View 32 v60,2013-02-01 00:20:00,
2013-01-31 19:40:00,17.9,11.9,27.02,NW,313,10.0,21.0,77,0.00,,,-99.99,Weather View 32 v60,2013-02-01 00:40:00,
2013-01-31 20:00:00,18.2,13.1,27.02,WNW,288,15.0,24.0,80,0.00,,,-99.99,Weather View 32 v60,2013-02-01 01:00:00,
2013-01-31 20:20:00,18.3,13.5,27.03,West,272,11.0,25.0,81,0.00,,,-99.99,Weather View 32 v60,2013-02-01 01:20:00,
2013-01-31 20:40:00,18.4,13.3,27.03,West,263,11.0,26.0,80,0.00,,,-99.99,Weather View 32 v60,2013-02-01 01:40:00,
2013-01-31 21:00:00,18.5,14.5,27.03,West,281,10.0,26.0,84,0.00,,,-99.99,Weather View 32 v60,2013-02-01 02:00:00,
2013-01-31 21:20:00,18.4,14.6,27.02,WNW,283,9.0,26.0,85,0.00,,,-99.99,Weather View 32 v60,2013-02-01 02:20:00,
2013-01-31 21:40:00,18.5,15.0,27.02,West,272,9.0,19.0,86,0.00,,,-99.99,Weather View 32 v60,2013-02-01 02:40:00,
2013-01-31 22:00:00,18.5,14.7,27.02,WNW,294,13.0,21.0,85,0.00,,,-99.99,Weather View 32 v60,2013-02-01 03:00:00,
2013-01-31 22:20:00,18.7,14.9,27.02,West,281,9.0,21.0,85,0.00,,,-99.99,Weather View 32 v60,2013-02-01 03:20:00,
2013-01-31 22:40:00,18.6,14.6,27.00,West,273,3.0,21.0,84,0.00,,,-99.99,Weather View 32 v60,2013-02-01 03:40:00,
2013-01-31 23:20:00,18.5,14.7,26.99,West,281,8.0,19.0,85,0.00,,,-99.99,Weather View 32 v60,2013-02-01 04:20:00,
2013-01-31 23:40:00,18.4,14.6,26.98,WNW,289,5.0,19.0,85,0.00,,,-99.99,Weather View 32 v60,2013-02-01 04:40:00,